createdAt,value
2023-03-03T00:01:56.392Z,27.57
2023-03-03T00:04:26.478Z,47.57
2023-03-03T00:07:23.179Z,41.60
2023-03-03T00:09:52.390Z,50.97
2023-03-03T00:12:27.114Z,47.00
2023-03-03T00:15:39.627Z,52.37
2023-03-03T00:18:24.032Z,41.13
2023-03-03T00:20:58.795Z,9.10
2023-03-03T00:23:38.841Z,37.20
2023-03-03T00:26:22.204Z,14.90
2023-03-03T00:28:53.340Z,25.73
2023-03-03T00:31:46.890Z,25.10
2023-03-03T00:34:27.345Z,20.93
2023-03-03T00:36:59.180Z,26.80
2023-03-03T00:39:34.818Z,19.10
2023-03-03T00:42:04.422Z,15.00
2023-03-03T00:44:58.252Z,7.60
2023-03-03T00:47:31.936Z,9.40
2023-03-03T00:50:35.279Z,9.03
2023-03-03T00:53:14.753Z,5.53
2023-03-03T00:55:43.263Z,6.83
2023-03-03T00:58:11.825Z,7.37
2023-03-03T01:00:41.466Z,6.63
2023-03-03T01:03:18.731Z,6.27
2023-03-03T01:05:47.533Z,6.20
2023-03-03T01:08:17.858Z,6.27
2023-03-03T01:10:51.999Z,5.40
2023-03-03T01:13:23.749Z,6.13
2023-03-03T01:15:52.545Z,6.60
2023-03-03T01:18:27.136Z,6.70
2023-03-03T01:20:55.642Z,7.17
2023-03-03T01:23:25.556Z,8.33
2023-03-03T01:25:54.014Z,7.60
2023-03-03T01:28:22.554Z,8.93
2023-03-03T01:30:51.118Z,9.73
2023-03-03T01:33:19.996Z,8.53
2023-03-03T01:35:49.462Z,7.10
2023-03-03T01:38:18.056Z,7.93
2023-03-03T01:40:55.290Z,8.47
2023-03-03T01:43:24.183Z,8.77
2023-03-03T01:46:36.976Z,8.30
2023-03-03T01:49:35.011Z,9.63
2023-03-03T01:52:14.183Z,9.37
2023-03-03T01:54:51.827Z,10.63
2023-03-03T01:57:29.999Z,9.47
2023-03-03T02:00:01.951Z,6.57
2023-03-03T02:02:31.582Z,9.27
2023-03-03T02:05:00.648Z,6.83
2023-03-03T02:07:32.078Z,10.03
2023-03-03T02:10:06.415Z,11.43
2023-03-03T02:12:54.552Z,10.60
2023-03-03T02:15:26.413Z,11.50
2023-03-03T02:17:58.669Z,12.50
2023-03-03T02:20:59.506Z,14.27
2023-03-03T02:23:39.691Z,10.63
2023-03-03T02:26:13.518Z,15.13
2023-03-03T02:28:43.240Z,14.27
2023-03-03T02:31:15.829Z,10.53
2023-03-03T02:33:46.480Z,10.10
2023-03-03T02:36:16.816Z,10.83
2023-03-03T02:38:52.777Z,7.00
2023-03-03T02:41:34.674Z,10.33
2023-03-03T02:44:07.277Z,9.43
2023-03-03T02:46:38.385Z,6.43
2023-03-03T02:49:09.619Z,7.60
2023-03-03T02:51:38.816Z,8.13
2023-03-03T02:54:08.768Z,7.17
2023-03-03T02:56:38.881Z,7.60
2023-03-03T02:59:07.831Z,7.77
2023-03-03T03:01:37.392Z,7.70
2023-03-03T03:04:11.574Z,8.47
2023-03-03T03:06:40.400Z,6.90
2023-03-03T03:09:20.048Z,7.47
2023-03-03T03:11:50.055Z,6.30
2023-03-03T03:14:18.576Z,6.77
2023-03-03T03:16:47.145Z,6.63
2023-03-03T03:19:16.224Z,6.40
2023-03-03T03:21:44.683Z,7.73
2023-03-03T03:24:13.205Z,6.10
2023-03-03T03:26:42.799Z,8.07
2023-03-03T03:29:12.607Z,6.97
2023-03-03T03:31:41.091Z,7.97
2023-03-03T03:34:09.571Z,5.80
2023-03-03T03:37:02.895Z,6.90
2023-03-03T03:39:31.672Z,6.43
2023-03-03T03:42:00.182Z,7.33
2023-03-03T03:44:30.163Z,6.60
2023-03-03T03:46:58.707Z,7.57
2023-03-03T03:49:27.180Z,6.93
2023-03-03T03:51:55.820Z,7.67
2023-03-03T03:54:24.301Z,7.20
2023-03-03T03:56:54.509Z,7.90
2023-03-03T03:59:23.371Z,7.70
2023-03-03T04:01:53.273Z,7.90
2023-03-03T04:04:21.818Z,7.87
2023-03-03T04:06:50.431Z,7.97
2023-03-03T04:09:44.158Z,9.23
2023-03-03T04:12:12.925Z,11.47
2023-03-03T04:14:41.486Z,11.77
2023-03-03T04:17:17.656Z,14.43
2023-03-03T04:19:46.998Z,16.90
2023-03-03T04:22:15.899Z,12.30
2023-03-03T04:24:44.442Z,11.13
2023-03-03T04:27:13.438Z,8.77
2023-03-03T04:29:42.303Z,8.57
2023-03-03T04:32:12.251Z,7.87
2023-03-03T04:34:40.901Z,8.93
2023-03-03T04:37:09.449Z,9.10
2023-03-03T04:39:38.034Z,9.70
2023-03-03T04:42:06.710Z,10.57
2023-03-03T04:44:59.788Z,9.83
2023-03-03T04:47:29.603Z,11.90
2023-03-03T04:49:58.038Z,11.47
2023-03-03T04:52:26.657Z,10.77
2023-03-03T04:54:55.196Z,9.13
2023-03-03T04:57:23.666Z,9.67
2023-03-03T04:59:52.205Z,10.47
2023-03-03T05:02:20.818Z,11.43
2023-03-03T05:04:50.775Z,10.70
2023-03-03T05:07:20.133Z,15.23
2023-03-03T05:09:48.617Z,16.63
2023-03-03T05:12:17.374Z,10.63
2023-03-03T05:14:47.258Z,10.43
2023-03-03T05:17:15.823Z,12.60
2023-03-03T05:19:44.506Z,11.23
2023-03-03T05:22:14.403Z,10.50
2023-03-03T05:24:43.982Z,11.97
2023-03-03T05:27:12.515Z,10.23
2023-03-03T05:29:40.980Z,12.10
2023-03-03T05:32:09.611Z,10.33
2023-03-03T05:34:38.330Z,11.47
2023-03-03T05:37:07.382Z,12.00
2023-03-03T05:40:02.484Z,11.00
2023-03-03T05:42:30.947Z,13.03
2023-03-03T05:45:25.355Z,11.83
2023-03-03T05:48:31.459Z,15.53
2023-03-03T05:51:24.741Z,12.87
2023-03-03T05:53:55.998Z,11.63
2023-03-03T05:56:26.366Z,10.60
2023-03-03T05:58:54.917Z,11.97
2023-03-03T06:01:23.914Z,13.10
2023-03-03T06:03:52.351Z,14.20
2023-03-03T06:06:20.818Z,14.73
2023-03-03T06:08:49.233Z,18.17
2023-03-03T06:11:19.444Z,15.97
2023-03-03T06:13:49.249Z,16.57
2023-03-03T06:16:18.191Z,18.33
2023-03-03T06:18:46.870Z,16.67
2023-03-03T06:21:15.377Z,15.87
2023-03-03T06:23:43.882Z,15.10
2023-03-03T06:26:12.387Z,19.87
2023-03-03T06:28:40.957Z,18.70
2023-03-03T06:31:10.859Z,21.03
2023-03-03T06:33:39.416Z,14.83
2023-03-03T06:36:08.911Z,17.53
2023-03-03T06:38:37.364Z,22.27
2023-03-03T06:41:08.514Z,23.83
2023-03-03T06:43:38.059Z,34.73
2023-03-03T06:46:07.284Z,28.33
2023-03-03T06:48:37.239Z,25.17
2023-03-03T06:51:57.600Z,40.13
2023-03-03T06:54:31.217Z,40.67
2023-03-03T06:57:16.276Z,36.80
2023-03-03T06:59:44.737Z,29.20
2023-03-03T07:02:19.033Z,13.80
2023-03-03T07:04:49.409Z,15.70
2023-03-03T07:07:21.441Z,13.53
2023-03-03T07:09:53.163Z,12.67
2023-03-03T07:12:24.538Z,14.67
2023-03-03T07:14:58.100Z,16.17
2023-03-03T07:17:27.535Z,14.20
2023-03-03T07:19:57.394Z,13.77
2023-03-03T07:22:30.290Z,13.77
2023-03-03T07:25:02.930Z,14.07
2023-03-03T07:27:33.047Z,15.23
2023-03-03T07:30:22.978Z,14.83
2023-03-03T07:32:56.721Z,13.53
2023-03-03T07:35:44.143Z,14.67
2023-03-03T07:38:31.705Z,13.67
2023-03-03T07:41:02.950Z,15.77
2023-03-03T07:43:36.736Z,14.60
2023-03-03T07:46:29.115Z,15.93
2023-03-03T07:48:59.902Z,13.77
2023-03-03T07:51:39.658Z,12.73
2023-03-03T07:54:31.986Z,12.13
2023-03-03T07:57:16.073Z,13.77
2023-03-03T07:59:50.166Z,12.27
2023-03-03T08:02:39.003Z,15.70
2023-03-03T08:05:34.212Z,13.93
2023-03-03T08:08:29.444Z,12.43
2023-03-03T08:10:59.769Z,11.57
2023-03-03T08:13:38.203Z,14.30
2023-03-03T08:16:31.626Z,13.13
2023-03-03T08:19:06.125Z,10.33
2023-03-03T08:21:37.080Z,11.70
2023-03-03T08:24:07.869Z,14.70
2023-03-03T08:26:36.433Z,14.00
2023-03-03T08:29:04.940Z,14.77
2023-03-03T08:31:41.203Z,14.43
2023-03-03T08:34:10.561Z,16.07
2023-03-03T08:36:39.031Z,17.70
2023-03-03T08:40:00.105Z,18.60
2023-03-03T08:42:30.172Z,14.10
2023-03-03T08:44:58.598Z,17.90
2023-03-03T08:47:34.880Z,16.27
2023-03-03T08:50:06.384Z,14.63
2023-03-03T08:52:35.354Z,16.80
2023-03-03T08:55:06.559Z,16.60
2023-03-03T08:57:36.257Z,13.20
2023-03-03T09:00:05.257Z,14.53
2023-03-03T09:02:33.864Z,15.97
2023-03-03T09:05:02.374Z,13.97
2023-03-03T09:07:30.915Z,14.70
2023-03-03T09:09:59.576Z,15.20
2023-03-03T09:12:49.819Z,14.93
2023-03-03T09:15:26.425Z,16.07
2023-03-03T09:17:55.465Z,14.60
2023-03-03T09:20:35.773Z,14.20
2023-03-03T09:23:36.072Z,15.43
2023-03-03T09:26:28.537Z,17.13
2023-03-03T09:29:17.935Z,14.97
2023-03-03T09:31:50.178Z,16.73
2023-03-03T09:34:24.733Z,16.13
2023-03-03T09:36:55.168Z,17.73
2023-03-03T09:39:26.340Z,15.13
2023-03-03T09:42:38.910Z,17.80
2023-03-03T09:46:00.436Z,15.57
2023-03-03T09:48:53.022Z,16.03
2023-03-03T09:52:17.155Z,14.73
2023-03-03T09:55:02.465Z,16.17
2023-03-03T09:58:04.475Z,14.27
2023-03-03T10:00:48.966Z,16.00
2023-03-03T10:04:07.576Z,14.43
2023-03-03T10:06:46.698Z,13.47
2023-03-03T10:09:54.556Z,15.80
2023-03-03T10:13:06.261Z,14.93
2023-03-03T10:15:52.501Z,15.67
2023-03-03T10:18:40.270Z,20.10
2023-03-03T10:21:38.032Z,16.67
2023-03-03T10:24:28.009Z,14.90
2023-03-03T10:27:30.285Z,14.80
2023-03-03T10:30:07.740Z,16.10
2023-03-03T10:33:13.660Z,14.63
2023-03-03T10:36:07.703Z,21.00
2023-03-03T10:39:12.284Z,18.57
2023-03-03T10:42:02.370Z,16.77
2023-03-03T10:45:14.535Z,14.53
2023-03-03T10:48:25.645Z,13.77
2023-03-03T10:51:08.340Z,15.47
2023-03-03T10:53:51.202Z,13.50
2023-03-03T10:56:52.245Z,13.93
2023-03-03T11:00:23.650Z,12.40
2023-03-03T11:03:37.188Z,12.03
2023-03-03T11:06:17.400Z,14.10
2023-03-03T11:08:54.046Z,14.70
2023-03-03T11:11:38.848Z,12.20
2023-03-03T11:14:17.545Z,12.13
2023-03-03T11:17:02.517Z,12.00
2023-03-03T11:19:53.562Z,11.77
2023-03-03T11:22:43.323Z,13.83
2023-03-03T11:25:28.216Z,12.77
2023-03-03T11:28:44.205Z,12.03
2023-03-03T11:31:30.658Z,12.97
2023-03-03T11:34:13.559Z,13.47
2023-03-03T11:36:50.669Z,12.37
2023-03-03T11:39:26.698Z,13.43
2023-03-03T11:42:11.129Z,10.93
2023-03-03T11:44:46.765Z,12.03
2023-03-03T11:47:26.540Z,15.40
2023-03-03T11:50:02.122Z,14.10
2023-03-03T11:52:44.712Z,12.70
2023-03-03T11:55:23.337Z,11.07
2023-03-03T11:58:01.062Z,10.57
2023-03-03T12:00:42.274Z,6.97
2023-03-03T12:03:26.036Z,4.70
2023-03-03T12:06:13.683Z,5.60
2023-03-03T12:09:19.683Z,5.00
2023-03-03T12:11:55.748Z,4.60
2023-03-03T12:14:45.052Z,4.53
2023-03-03T12:17:50.779Z,4.10
2023-03-03T12:20:30.153Z,4.33
2023-03-03T12:23:17.792Z,3.70
2023-03-03T12:25:51.145Z,5.47
2023-03-03T12:28:26.296Z,10.27
2023-03-03T12:31:22.784Z,6.77
2023-03-03T12:34:24.209Z,4.93
2023-03-03T12:37:19.945Z,5.90
2023-03-03T12:40:07.606Z,3.33
2023-03-03T12:42:55.674Z,8.00
2023-03-03T12:45:42.194Z,9.23
2023-03-03T12:48:17.624Z,3.50
2023-03-03T12:51:06.832Z,3.17
2023-03-03T12:54:03.386Z,3.30
2023-03-03T12:56:42.812Z,2.47
2023-03-03T12:59:18.374Z,2.17
2023-03-03T13:02:36.457Z,2.10
2023-03-03T13:05:31.614Z,1.90
2023-03-03T13:08:31.258Z,1.80
2023-03-03T13:11:17.411Z,1.97
2023-03-03T13:13:55.178Z,1.80
2023-03-03T13:16:41.088Z,1.80
2023-03-03T13:19:19.363Z,1.80
2023-03-03T13:21:56.615Z,2.03
2023-03-03T13:24:37.533Z,2.00
2023-03-03T13:27:12.304Z,1.70
2023-03-03T13:29:45.246Z,2.03
2023-03-03T13:32:19.924Z,1.60
2023-03-03T13:35:02.338Z,2.60
2023-03-03T13:37:38.469Z,5.53
2023-03-03T13:40:42.543Z,3.23
2023-03-03T13:43:19.860Z,3.87
2023-03-03T13:46:05.578Z,3.47
2023-03-03T13:48:48.970Z,3.00
2023-03-03T13:51:37.922Z,6.57
2023-03-03T13:54:22.346Z,6.20
2023-03-03T13:57:27.092Z,4.33
2023-03-03T14:00:14.536Z,4.30
2023-03-03T14:03:07.109Z,3.80
2023-03-03T14:05:42.620Z,4.03
2023-03-03T14:08:26.605Z,4.43
2023-03-03T14:11:11.396Z,4.57
2023-03-03T14:13:56.730Z,3.87
2023-03-03T14:16:44.577Z,5.07
2023-03-03T14:19:18.981Z,4.77
2023-03-03T14:22:02.138Z,5.43
2023-03-03T14:24:32.118Z,4.60
2023-03-03T14:27:01.969Z,4.80
2023-03-03T14:29:34.930Z,5.27
2023-03-03T14:32:25.107Z,6.80
2023-03-03T14:35:51.536Z,7.07
2023-03-03T14:38:24.246Z,5.87
2023-03-03T14:41:15.303Z,9.70
2023-03-03T14:43:46.481Z,6.43
2023-03-03T14:46:45.411Z,4.87
2023-03-03T14:49:30.740Z,6.80
2023-03-03T14:52:07.450Z,15.63
2023-03-03T14:54:41.020Z,9.43
2023-03-03T14:57:17.630Z,7.07
2023-03-03T15:00:00.694Z,5.90
2023-03-03T15:02:43.668Z,5.90
2023-03-03T15:05:23.689Z,6.17
2023-03-03T15:07:56.778Z,6.83
2023-03-03T15:10:36.070Z,6.53
2023-03-03T15:13:35.980Z,6.90
2023-03-03T15:16:17.765Z,7.43
2023-03-03T15:19:41.158Z,7.80
2023-03-03T15:22:28.392Z,7.10
2023-03-03T15:25:05.165Z,6.07
2023-03-03T15:27:51.000Z,7.73
2023-03-03T15:30:32.192Z,6.47
2023-03-03T15:33:08.358Z,6.17
2023-03-03T15:35:50.541Z,6.97
2023-03-03T15:38:49.665Z,6.27
2023-03-03T15:42:13.012Z,5.10
2023-03-03T15:45:17.261Z,4.60
2023-03-03T15:48:08.168Z,4.30
2023-03-03T15:50:50.182Z,4.70
2023-03-03T15:54:14.491Z,5.07
2023-03-03T15:56:52.475Z,4.33
2023-03-03T16:00:01.817Z,5.17
2023-03-03T16:02:47.450Z,4.90
2023-03-03T16:05:36.621Z,4.90
2023-03-03T16:08:14.534Z,4.73
2023-03-03T16:11:00.655Z,4.20
2023-03-03T16:13:53.444Z,3.90
2023-03-03T16:16:40.686Z,3.80
2023-03-03T16:19:27.094Z,3.57
2023-03-03T16:22:27.313Z,3.83
2023-03-03T16:25:16.125Z,4.73
2023-03-03T16:27:53.667Z,4.07
2023-03-03T16:30:32.222Z,4.00
2023-03-03T16:33:23.469Z,4.07
2023-03-03T16:36:07.272Z,3.27
2023-03-03T16:38:42.747Z,3.10
2023-03-03T16:41:47.577Z,4.17
2023-03-03T16:44:38.684Z,3.90
2023-03-03T16:47:29.969Z,4.33
2023-03-03T16:50:17.980Z,4.60
2023-03-03T16:52:55.638Z,4.93
2023-03-03T16:55:31.075Z,7.10
2023-03-03T16:58:21.845Z,15.43
2023-03-03T17:01:00.181Z,10.03
2023-03-03T17:03:57.265Z,9.93
2023-03-03T17:06:37.190Z,24.90
2023-03-03T17:09:34.900Z,35.40
2023-03-03T17:12:55.396Z,34.93
2023-03-03T17:16:02.943Z,19.00
2023-03-03T17:18:46.273Z,23.83
2023-03-03T17:21:32.748Z,21.13
2023-03-03T17:24:14.865Z,20.63
2023-03-03T17:27:19.101Z,24.73
2023-03-03T17:30:07.696Z,18.00
2023-03-03T17:33:09.758Z,32.57
2023-03-03T17:36:01.438Z,18.83
2023-03-03T17:38:49.896Z,12.93
2023-03-03T17:41:25.564Z,16.20
2023-03-03T17:44:05.602Z,11.37
2023-03-03T17:46:40.946Z,8.17
2023-03-03T17:49:56.358Z,9.63
2023-03-03T17:52:53.505Z,13.90
2023-03-03T17:55:49.605Z,9.37
2023-03-03T17:58:44.884Z,9.17
2023-03-03T18:02:00.168Z,9.00
2023-03-03T18:05:09.304Z,10.67
2023-03-03T18:08:01.344Z,13.17
2023-03-03T18:11:12.217Z,18.47
2023-03-03T18:14:48.679Z,7.57
2023-03-03T18:17:36.482Z,6.70
2023-03-03T18:20:58.392Z,7.50
2023-03-03T18:23:42.861Z,18.80
2023-03-03T18:26:42.037Z,4.87
2023-03-03T18:29:30.202Z,3.40
2023-03-03T18:32:20.985Z,15.67
2023-03-03T18:35:25.633Z,17.07
2023-03-03T18:37:55.502Z,17.67
2023-03-03T18:40:35.045Z,18.07
2023-03-03T18:43:50.517Z,15.97
2023-03-03T18:46:49.538Z,7.57
2023-03-03T18:49:19.058Z,21.70
2023-03-03T18:52:14.739Z,19.13
2023-03-03T18:54:43.869Z,14.90
2023-03-03T18:57:20.515Z,15.87
2023-03-03T18:59:59.519Z,12.93
2023-03-03T19:02:39.004Z,10.73
2023-03-03T19:05:20.840Z,10.33
2023-03-03T19:07:58.559Z,7.27
2023-03-03T19:10:51.765Z,6.30
2023-03-03T19:13:49.849Z,6.33
2023-03-03T19:16:37.350Z,5.57
2023-03-03T19:19:17.572Z,5.20
2023-03-03T19:21:51.344Z,12.33
2023-03-03T19:24:35.145Z,9.63
2023-03-03T19:27:31.837Z,7.70
2023-03-03T19:30:20.949Z,8.13
2023-03-03T19:33:23.669Z,9.60
2023-03-03T19:36:40.784Z,12.10
2023-03-03T19:39:48.578Z,9.20
2023-03-03T19:42:44.933Z,7.87
2023-03-03T19:45:41.882Z,7.07
2023-03-03T19:48:25.217Z,5.80
2023-03-03T19:51:03.008Z,4.90
2023-03-03T19:53:46.441Z,4.73
2023-03-03T19:56:30.809Z,4.73
2023-03-03T19:59:17.484Z,7.70
2023-03-03T20:02:03.115Z,4.90
2023-03-03T20:04:55.767Z,4.83
2023-03-03T20:07:41.775Z,4.30
2023-03-03T20:10:36.455Z,4.97
2023-03-03T20:13:27.205Z,6.10
2023-03-03T20:16:10.538Z,4.37
2023-03-03T20:19:03.256Z,6.70
2023-03-03T20:21:35.800Z,5.97
2023-03-03T20:24:34.489Z,6.17
2023-03-03T20:27:10.914Z,5.57
2023-03-03T20:30:28.767Z,6.00
2023-03-03T20:33:18.432Z,6.73
2023-03-03T20:36:05.259Z,6.23
2023-03-03T20:38:47.811Z,6.27
2023-03-03T20:41:54.025Z,6.77
2023-03-03T20:44:41.824Z,7.03
2023-03-03T20:47:26.094Z,8.10
2023-03-03T20:50:16.387Z,8.20
2023-03-03T20:53:18.528Z,10.70
2023-03-03T20:56:01.108Z,10.30
2023-03-03T20:58:47.367Z,10.80
2023-03-03T21:01:22.180Z,14.80
2023-03-03T21:03:52.301Z,12.17
2023-03-03T21:06:22.070Z,13.20
2023-03-03T21:08:54.392Z,12.40
2023-03-03T21:11:25.830Z,13.97
2023-03-03T21:13:59.732Z,13.40
2023-03-03T21:16:35.821Z,16.17
2023-03-03T21:19:09.153Z,17.37
2023-03-03T21:21:40.757Z,16.47
2023-03-03T21:24:15.344Z,14.23
2023-03-03T21:26:58.091Z,16.53
2023-03-03T21:30:07.179Z,19.07
2023-03-03T21:32:39.400Z,17.87
2023-03-03T21:35:37.092Z,16.30
2023-03-03T21:38:05.575Z,15.70
2023-03-03T21:40:34.163Z,16.93
2023-03-03T21:43:02.718Z,17.00
2023-03-03T21:45:31.234Z,18.47
2023-03-03T21:48:02.423Z,19.20
2023-03-03T21:50:35.610Z,16.37
2023-03-03T21:53:04.165Z,17.60
2023-03-03T21:55:32.680Z,16.87
2023-03-03T21:58:01.183Z,17.10
2023-03-03T22:00:29.681Z,17.70
2023-03-03T22:02:58.556Z,18.10
2023-03-03T22:05:45.368Z,19.77
2023-03-03T22:08:13.942Z,17.13
2023-03-03T22:10:42.432Z,17.80
2023-03-03T22:13:36.369Z,19.87
2023-03-03T22:16:07.722Z,17.40
2023-03-03T22:18:36.266Z,18.57
2023-03-03T22:21:07.055Z,21.03
2023-03-03T22:23:35.599Z,19.83
2023-03-03T22:26:08.828Z,19.37
2023-03-03T22:28:37.521Z,21.17
2023-03-03T22:31:28.832Z,20.10
2023-03-03T22:33:57.325Z,16.50
2023-03-03T22:36:27.313Z,17.50
2023-03-03T22:38:55.768Z,17.73
2023-03-03T22:41:24.429Z,20.77
2023-03-03T22:44:18.802Z,19.53
2023-03-03T22:46:47.324Z,17.13
2023-03-03T22:49:15.812Z,15.83
2023-03-03T22:51:45.770Z,15.03
2023-03-03T22:54:14.270Z,16.27
2023-03-03T22:56:42.751Z,13.50
2023-03-03T22:59:11.287Z,13.30
2023-03-03T23:01:39.895Z,17.37
2023-03-03T23:04:08.558Z,14.13
2023-03-03T23:06:37.152Z,13.37
2023-03-03T23:09:07.838Z,13.43
2023-03-03T23:11:36.346Z,15.03
2023-03-03T23:14:04.869Z,18.00
2023-03-03T23:16:33.539Z,14.70
2023-03-03T23:19:02.235Z,12.93
2023-03-03T23:48:34.471Z,16.47
2023-03-03T23:51:03.450Z,15.57
2023-03-03T23:53:36.953Z,15.87
2023-03-03T23:56:06.285Z,15.97
2023-03-03T23:58:34.810Z,15.50
